sensor_id;sensor_type;location;lat;lon;timestamp;pressure;altitude;pressure_sealevel;temperature;humidity
8160;BME280;27404;52.398;9.646;2023-02-17T00:02:24;101091.84;;;7.06;100.00
8160;BME280;27404;52.398;9.646;2023-02-17T00:04:51;101090.00;;;7.14;100.00
8160;BME280;27404;52.398;9.646;2023-02-17T00:07:17;101079.53;;;7.10;100.00
8160;BME280;27404;52.398;9.646;2023-02-17T00:09:42;101079.53;;;7.10;100.00
8160;BME280;27404;52.398;9.646;2023-02-17T00:12:08;101080.97;;;7.06;100.00
8160;BME280;27404;52.398;9.646;2023-02-17T00:14:33;101088.16;;;7.14;100.00
8160;BME280;27404;52.398;9.646;2023-02-17T00:16:59;101083.81;;;7.26;100.00
8160;BME280;27404;52.398;9.646;2023-02-17T00:19:24;101089.22;;;7.20;100.00
8160;BME280;27404;52.398;9.646;2023-02-17T00:21:53;101078.38;;;7.26;100.00
8160;BME280;27404;52.398;9.646;2023-02-17T00:24:20;101075.66;;;7.26;100.00
8160;BME280;27404;52.398;9.646;2023-02-17T00:26:46;101080.88;;;7.28;100.00
8160;BME280;27404;52.398;9.646;2023-02-17T00:29:11;101080.47;;;7.31;100.00
8160;BME280;27404;52.398;9.646;2023-02-17T00:31:36;101079.44;;;7.32;100.00
8160;BME280;27404;52.398;9.646;2023-02-17T00:34:02;101077.94;;;7.30;100.00
8160;BME280;27404;52.398;9.646;2023-02-17T00:36:28;101076.94;;;7.37;100.00
8160;BME280;27404;52.398;9.646;2023-02-17T00:38:55;101073.38;;;7.37;100.00
8160;BME280;27404;52.398;9.646;2023-02-17T00:41:21;101083.03;;;7.39;100.00
8160;BME280;27404;52.398;9.646;2023-02-17T00:43:47;101078.63;;;7.45;100.00
8160;BME280;27404;52.398;9.646;2023-02-17T00:46:14;101079.31;;;7.54;100.00
8160;BME280;27404;52.398;9.646;2023-02-17T00:48:40;101082.03;;;7.54;100.00
8160;BME280;27404;52.398;9.646;2023-02-17T00:51:05;101074.50;;;7.56;100.00
8160;BME280;27404;52.398;9.646;2023-02-17T00:53:31;101078.28;;;7.55;100.00
8160;BME280;27404;52.398;9.646;2023-02-17T00:55:57;101072.19;;;7.53;100.00
8160;BME280;27404;52.398;9.646;2023-02-17T00:58:22;101064.66;;;7.55;100.00
8160;BME280;27404;52.398;9.646;2023-02-17T01:00:48;101068.44;;;7.54;100.00
8160;BME280;27404;52.398;9.646;2023-02-17T01:03:13;101068.66;;;7.66;100.00
8160;BME280;27404;52.398;9.646;2023-02-17T01:05:42;101058.59;;;7.60;100.00
8160;BME280;27404;52.398;9.646;2023-02-17T01:08:08;101065.94;;;7.66;100.00
8160;BME280;27404;52.398;9.646;2023-02-17T01:10:39;101059.66;;;7.65;100.00
8160;BME280;27404;52.398;9.646;2023-02-17T01:13:06;101060.09;;;7.76;100.00
8160;BME280;27404;52.398;9.646;2023-02-17T01:15:46;101057.59;;;7.74;100.00
8160;BME280;27404;52.398;9.646;2023-02-17T01:18:12;101055.69;;;7.75;100.00
8160;BME280;27404;52.398;9.646;2023-02-17T01:20:38;101057.59;;;7.74;100.00
8160;BME280;27404;52.398;9.646;2023-02-17T01:23:05;101054.00;;;7.67;100.00
8160;BME280;27404;52.398;9.646;2023-02-17T01:25:30;101056.09;;;7.71;100.00
8160;BME280;27404;52.398;9.646;2023-02-17T01:27:56;101040.41;;;7.74;100.00
8160;BME280;27404;52.398;9.646;2023-02-17T01:30:22;101037.69;;;7.74;100.00
8160;BME280;27404;52.398;9.646;2023-02-17T01:32:47;101029.09;;;7.77;100.00
8160;BME280;27404;52.398;9.646;2023-02-17T01:35:13;101015.50;;;7.77;100.00
8160;BME280;27404;52.398;9.646;2023-02-17T01:37:38;101019.06;;;7.84;100.00
8160;BME280;27404;52.398;9.646;2023-02-17T01:40:04;101014.88;;;7.88;100.00
8160;BME280;27404;52.398;9.646;2023-02-17T01:42:30;101010.72;;;7.85;100.00
8160;BME280;27404;52.398;9.646;2023-02-17T01:48:13;100997.31;;;7.91;100.00
8160;BME280;27404;52.398;9.646;2023-02-17T01:53:20;100989.75;;;7.86;100.00
8160;BME280;27404;52.398;9.646;2023-02-17T01:55:47;100986.63;;;7.89;100.00
8160;BME280;27404;52.398;9.646;2023-02-17T01:58:15;100990.81;;;7.92;100.00
8160;BME280;27404;52.398;9.646;2023-02-17T02:00:43;100992.91;;;7.96;100.00
8160;BME280;27404;52.398;9.646;2023-02-17T02:03:11;100989.78;;;7.99;100.00
8160;BME280;27404;52.398;9.646;2023-02-17T02:05:40;100985.78;;;7.95;100.00
8160;BME280;27404;52.398;9.646;2023-02-17T02:08:06;100978.66;;;7.94;100.00
8160;BME280;27404;52.398;9.646;2023-02-17T02:10:33;100986.22;;;7.92;100.00
8160;BME280;27404;52.398;9.646;2023-02-17T02:12:58;100979.09;;;8.05;100.00
8160;BME280;27404;52.398;9.646;2023-02-17T02:15:27;100980.97;;;8.04;100.00
8160;BME280;27404;52.398;9.646;2023-02-17T02:36:55;100969.25;;;8.04;100.00
8160;BME280;27404;52.398;9.646;2023-02-17T02:39:31;100967.16;;;8.06;100.00
8160;BME280;27404;52.398;9.646;2023-02-17T02:42:02;100956.69;;;8.03;100.00
8160;BME280;27404;52.398;9.646;2023-02-17T02:44:29;100951.44;;;8.08;100.00
8160;BME280;27404;52.398;9.646;2023-02-17T02:47:00;100938.25;;;8.05;100.00
8160;BME280;27404;52.398;9.646;2023-02-17T02:49:27;100922.53;;;8.07;100.00
8160;BME280;27404;52.398;9.646;2023-02-17T02:52:18;100929.03;;;8.06;100.00
8160;BME280;27404;52.398;9.646;2023-02-17T02:54:50;100927.75;;;8.08;100.00
8160;BME280;27404;52.398;9.646;2023-02-17T02:57:43;100924.59;;;8.11;100.00
8160;BME280;27404;52.398;9.646;2023-02-17T03:00:55;100929.25;;;8.11;100.00
8160;BME280;27404;52.398;9.646;2023-02-17T03:03:38;100922.94;;;8.17;100.00
8160;BME280;27404;52.398;9.646;2023-02-17T03:06:30;100928.59;;;8.15;100.00
8160;BME280;27404;52.398;9.646;2023-02-17T03:09:10;100927.34;;;8.18;100.00
8160;BME280;27404;52.398;9.646;2023-02-17T03:11:38;100929.22;;;8.18;100.00
8160;BME280;27404;52.398;9.646;2023-02-17T03:14:13;100917.25;;;8.19;100.00
8160;BME280;27404;52.398;9.646;2023-02-17T03:16:40;100924.63;;;8.18;100.00
8160;BME280;27404;52.398;9.646;2023-02-17T03:19:07;100914.94;;;8.29;100.00
8160;BME280;27404;52.398;9.646;2023-02-17T03:24:01;100910.16;;;8.18;100.00
8160;BME280;27404;52.398;9.646;2023-02-17T03:26:26;100916.66;;;8.23;100.00
8160;BME280;27404;52.398;9.646;2023-02-17T03:28:51;100913.94;;;8.23;100.00
8160;BME280;27404;52.398;9.646;2023-02-17T03:31:17;100911.81;;;8.25;100.00
8160;BME280;27404;52.398;9.646;2023-02-17T03:33:42;100910.16;;;8.24;100.00
8160;BME280;27404;52.398;9.646;2023-02-17T03:36:08;100913.31;;;8.21;100.00
8160;BME280;27404;52.398;9.646;2023-02-17T03:38:33;100907.00;;;8.27;100.00
8160;BME280;27404;52.398;9.646;2023-02-17T03:40:59;100892.53;;;8.27;100.00
8160;BME280;27404;52.398;9.646;2023-02-17T03:43:24;100885.22;;;8.27;100.00
8160;BME280;27404;52.398;9.646;2023-02-17T03:45:50;100881.63;;;8.27;100.00
8160;BME280;27404;52.398;9.646;2023-02-17T03:48:15;100877.63;;;8.29;100.00
8160;BME280;27404;52.398;9.646;2023-02-17T03:50:40;100887.09;;;8.27;100.00
8160;BME280;27404;52.398;9.646;2023-02-17T03:53:06;100882.91;;;8.24;100.00
8160;BME280;27404;52.398;9.646;2023-02-17T03:55:31;100878.53;;;8.23;100.00
8160;BME280;27404;52.398;9.646;2023-02-17T03:57:57;100892.09;;;8.30;100.00
8160;BME280;27404;52.398;9.646;2023-02-17T04:00:22;100879.31;;;8.30;100.00
8160;BME280;27404;52.398;9.646;2023-02-17T04:02:48;100879.72;;;8.34;100.00
8160;BME280;27404;52.398;9.646;2023-02-17T04:05:13;100880.34;;;8.36;100.00
8160;BME280;27404;52.398;9.646;2023-02-17T04:07:39;100870.72;;;8.34;100.00
8160;BME280;27404;52.398;9.646;2023-02-17T04:10:05;100867.34;;;8.32;100.00
8160;BME280;27404;52.398;9.646;2023-02-17T04:12:31;100866.94;;;8.35;100.00
8160;BME280;27404;52.398;9.646;2023-02-17T04:14:56;100869.84;;;8.40;100.00
8160;BME280;27404;52.398;9.646;2023-02-17T04:17:21;100865.88;;;8.36;100.00
8160;BME280;27404;52.398;9.646;2023-02-17T04:19:47;100877.41;;;8.38;100.00
8160;BME280;27404;52.398;9.646;2023-02-17T04:22:12;100873.44;;;8.40;100.00
8160;BME280;27404;52.398;9.646;2023-02-17T04:24:38;100873.19;;;8.42;100.00
8160;BME280;27404;52.398;9.646;2023-02-17T04:27:03;100878.03;;;8.40;100.00
8160;BME280;27404;52.398;9.646;2023-02-17T04:29:30;100877.59;;;8.43;100.00
8160;BME280;27404;52.398;9.646;2023-02-17T04:31:55;100875.28;;;8.40;100.00
8160;BME280;27404;52.398;9.646;2023-02-17T04:34:21;100876.56;;;8.37;100.00
8160;BME280;27404;52.398;9.646;2023-02-17T04:36:46;100872.56;;;8.40;100.00
8160;BME280;27404;52.398;9.646;2023-02-17T04:39:12;100864.00;;;8.36;100.00
8160;BME280;27404;52.398;9.646;2023-02-17T04:41:37;100862.75;;;8.32;100.00
8160;BME280;27404;52.398;9.646;2023-02-17T04:44:02;100856.88;;;8.35;100.00
8160;BME280;27404;52.398;9.646;2023-02-17T04:46:28;100859.19;;;8.32;100.00
8160;BME280;27404;52.398;9.646;2023-02-17T04:48:53;100855.41;;;8.33;100.00
8160;BME280;27404;52.398;9.646;2023-02-17T04:51:19;100858.75;;;8.35;100.00
8160;BME280;27404;52.398;9.646;2023-02-17T04:53:44;100853.75;;;8.32;100.00
8160;BME280;27404;52.398;9.646;2023-02-17T04:56:10;100848.53;;;8.30;100.00
8160;BME280;27404;52.398;9.646;2023-02-17T04:58:35;100855.84;;;8.29;100.00
8160;BME280;27404;52.398;9.646;2023-02-17T05:01:01;100854.78;;;8.30;100.00
8160;BME280;27404;52.398;9.646;2023-02-17T05:03:26;100852.69;;;8.33;100.00
8160;BME280;27404;52.398;9.646;2023-02-17T05:05:52;100845.56;;;8.38;100.00
8160;BME280;27404;52.398;9.646;2023-02-17T05:08:17;100845.56;;;8.32;100.00
8160;BME280;27404;52.398;9.646;2023-02-17T05:10:42;100833.41;;;8.34;100.00
8160;BME280;27404;52.398;9.646;2023-02-17T05:13:08;100839.25;;;8.38;100.00
8160;BME280;27404;52.398;9.646;2023-02-17T05:15:34;100833.63;;;8.39;100.00
8160;BME280;27404;52.398;9.646;2023-02-17T05:17:59;100828.78;;;8.35;100.00
8160;BME280;27404;52.398;9.646;2023-02-17T05:20:24;100821.88;;;8.39;100.00
8160;BME280;27404;52.398;9.646;2023-02-17T05:22:50;100819.16;;;8.39;100.00
8160;BME280;27404;52.398;9.646;2023-02-17T05:25:15;100818.09;;;8.40;100.00
8160;BME280;27404;52.398;9.646;2023-02-17T05:27:41;100817.88;;;8.41;100.00
8160;BME280;27404;52.398;9.646;2023-02-17T05:30:06;100821.84;;;8.52;100.00
8160;BME280;27404;52.398;9.646;2023-02-17T05:32:32;100818.28;;;8.52;100.00
8160;BME280;27404;52.398;9.646;2023-02-17T05:34:57;100808.41;;;8.57;100.00
8160;BME280;27404;52.398;9.646;2023-02-17T05:37:23;100813.84;;;8.57;100.00
8160;BME280;27404;52.398;9.646;2023-02-17T05:39:48;100811.31;;;8.63;100.00
8160;BME280;27404;52.398;9.646;2023-02-17T05:42:14;100811.53;;;8.61;100.00
8160;BME280;27404;52.398;9.646;2023-02-17T05:44:39;100806.28;;;8.59;100.00
8160;BME280;27404;52.398;9.646;2023-02-17T05:47:05;100799.41;;;8.57;100.00
8160;BME280;27404;52.398;9.646;2023-02-17T05:49:30;100792.91;;;8.58;100.00
8160;BME280;27404;52.398;9.646;2023-02-17T05:51:55;100782.16;;;8.63;100.00
8160;BME280;27404;52.398;9.646;2023-02-17T05:54:21;100769.75;;;8.67;100.00
8160;BME280;27404;52.398;9.646;2023-02-17T05:56:46;100774.78;;;8.70;100.00
8160;BME280;27404;52.398;9.646;2023-02-17T05:59:12;100772.03;;;8.70;100.00
8160;BME280;27404;52.398;9.646;2023-02-17T06:01:37;100769.75;;;8.67;100.00
8160;BME280;27404;52.398;9.646;2023-02-17T06:04:03;100767.00;;;8.74;100.00
8160;BME280;27404;52.398;9.646;2023-02-17T06:06:28;100767.38;;;8.78;100.00
8160;BME280;27404;52.398;9.646;2023-02-17T06:08:54;100771.56;;;8.80;100.00
8160;BME280;27404;52.398;9.646;2023-02-17T06:11:19;100769.28;;;8.77;100.00
8160;BME280;27404;52.398;9.646;2023-02-17T06:13:45;100768.19;;;8.85;100.00
8160;BME280;27404;52.398;9.646;2023-02-17T06:16:10;100774.47;;;8.85;100.00
8160;BME280;27404;52.398;9.646;2023-02-17T06:18:35;100787.06;;;8.86;100.00
8160;BME280;27404;52.398;9.646;2023-02-17T06:21:01;100781.81;;;8.85;100.00
8160;BME280;27404;52.398;9.646;2023-02-17T06:23:26;100772.41;;;8.81;100.00
8160;BME280;27404;52.398;9.646;2023-02-17T06:25:52;100780.56;;;8.87;100.00
8160;BME280;27404;52.398;9.646;2023-02-17T06:28:18;100772.56;;;8.86;100.00
8160;BME280;27404;52.398;9.646;2023-02-17T06:30:43;100776.34;;;8.85;100.00
8160;BME280;27404;52.398;9.646;2023-02-17T06:33:09;100779.31;;;8.83;100.00
8160;BME280;27404;52.398;9.646;2023-02-17T06:35:34;100768.41;;;8.83;100.00
8160;BME280;27404;52.398;9.646;2023-02-17T06:38:00;100768.59;;;8.88;100.00
8160;BME280;27404;52.398;9.646;2023-02-17T06:40:25;100754.03;;;8.95;100.00
8160;BME280;27404;52.398;9.646;2023-02-17T06:42:51;100761.47;;;8.87;100.00
8160;BME280;27404;52.398;9.646;2023-02-17T06:45:16;100752.41;;;8.94;100.00
8160;BME280;27404;52.398;9.646;2023-02-17T06:47:42;100748.00;;;8.93;100.00
8160;BME280;27404;52.398;9.646;2023-02-17T06:50:08;100752.53;;;8.99;100.00
8160;BME280;27404;52.398;9.646;2023-02-17T06:52:33;100750.44;;;9.01;100.00
8160;BME280;27404;52.398;9.646;2023-02-17T06:54:59;100752.09;;;9.02;100.00
8160;BME280;27404;52.398;9.646;2023-02-17T06:57:24;100756.31;;;8.98;100.00
8160;BME280;27404;52.398;9.646;2023-02-17T06:59:50;100764.75;;;8.96;100.00
8160;BME280;27404;52.398;9.646;2023-02-17T07:02:15;100758.84;;;8.99;100.00
8160;BME280;27404;52.398;9.646;2023-02-17T07:04:41;100761.75;;;9.04;100.00
8160;BME280;27404;52.398;9.646;2023-02-17T07:07:07;100757.72;;;9.07;100.00
8160;BME280;27404;52.398;9.646;2023-02-17T07:09:34;100762.19;;;9.01;100.00
8160;BME280;27404;52.398;9.646;2023-02-17T07:12:00;100766.97;;;9.06;100.00
8160;BME280;27404;52.398;9.646;2023-02-17T07:14:26;100758.56;;;9.08;100.00
8160;BME280;27404;52.398;9.646;2023-02-17T07:16:52;100771.81;;;9.04;100.00
8160;BME280;27404;52.398;9.646;2023-02-17T07:19:18;100757.34;;;9.03;100.00
8160;BME280;27404;52.398;9.646;2023-02-17T07:21:44;100768.03;;;9.05;100.00
8160;BME280;27404;52.398;9.646;2023-02-17T07:24:09;100746.44;;;9.03;100.00
8160;BME280;27404;52.398;9.646;2023-02-17T07:26:39;100721.22;;;9.08;100.00
8160;BME280;27404;52.398;9.646;2023-02-17T07:29:05;100733.34;;;9.12;100.00
8160;BME280;27404;52.398;9.646;2023-02-17T07:31:32;100718.44;;;9.15;100.00
8160;BME280;27404;52.398;9.646;2023-02-17T07:33:57;100714.41;;;9.17;100.00
8160;BME280;27404;52.398;9.646;2023-02-17T07:36:23;100707.47;;;9.22;100.00
8160;BME280;27404;52.398;9.646;2023-02-17T07:38:48;100710.63;;;9.18;100.00
8160;BME280;27404;52.398;9.646;2023-02-17T07:41:19;100700.56;;;9.19;100.00
8160;BME280;27404;52.398;9.646;2023-02-17T07:43:46;100709.38;;;9.21;100.00
8160;BME280;27404;52.398;9.646;2023-02-17T07:46:12;100712.09;;;9.21;100.00
8160;BME280;27404;52.398;9.646;2023-02-17T07:48:38;100715.81;;;9.27;100.00
8160;BME280;27404;52.398;9.646;2023-02-17T07:51:08;100709.13;;;9.23;100.00
8160;BME280;27404;52.398;9.646;2023-02-17T07:53:34;100696.72;;;9.27;100.00
8160;BME280;27404;52.398;9.646;2023-02-17T07:56:04;100705.75;;;9.27;100.00
8160;BME280;27404;52.398;9.646;2023-02-17T07:58:31;100710.50;;;9.32;100.00
8160;BME280;27404;52.398;9.646;2023-02-17T08:00:57;100705.66;;;9.34;100.00
8160;BME280;27404;52.398;9.646;2023-02-17T08:03:22;100709.22;;;9.34;100.00
8160;BME280;27404;52.398;9.646;2023-02-17T08:05:48;100706.03;;;9.38;100.00
8160;BME280;27404;52.398;9.646;2023-02-17T08:08:16;100688.84;;;9.37;100.00
8160;BME280;27404;52.398;9.646;2023-02-17T08:11:00;100697.78;;;9.44;100.00
8160;BME280;27404;52.398;9.646;2023-02-17T08:13:44;100695.28;;;9.43;100.00
8160;BME280;27404;52.398;9.646;2023-02-17T08:16:09;100700.88;;;9.48;100.00
8160;BME280;27404;52.398;9.646;2023-02-17T08:18:35;100706.34;;;9.48;100.00
8160;BME280;27404;52.398;9.646;2023-02-17T08:21:00;100697.34;;;9.47;100.00
8160;BME280;27404;52.398;9.646;2023-02-17T08:23:26;100686.88;;;9.44;100.00
8160;BME280;27404;52.398;9.646;2023-02-17T08:25:51;100689.97;;;9.48;100.00
8160;BME280;27404;52.398;9.646;2023-02-17T08:28:17;100681.34;;;9.51;100.00
8160;BME280;27404;52.398;9.646;2023-02-17T08:30:42;100679.59;;;9.57;100.00
8160;BME280;27404;52.398;9.646;2023-02-17T08:33:08;100681.94;;;9.53;100.00
8160;BME280;27404;52.398;9.646;2023-02-17T08:35:33;100676.88;;;9.57;100.00
8160;BME280;27404;52.398;9.646;2023-02-17T08:37:58;100683.59;;;9.54;100.00
8160;BME280;27404;52.398;9.646;2023-02-17T08:40:24;100677.69;;;9.57;100.00
8160;BME280;27404;52.398;9.646;2023-02-17T08:42:49;100665.34;;;9.55;100.00
8160;BME280;27404;52.398;9.646;2023-02-17T08:45:16;100662.38;;;9.56;100.00
8160;BME280;27404;52.398;9.646;2023-02-17T08:47:42;100660.50;;;9.57;100.00
8160;BME280;27404;52.398;9.646;2023-02-17T08:50:10;100653.97;;;9.58;100.00
8160;BME280;27404;52.398;9.646;2023-02-17T08:52:40;100652.94;;;9.59;100.00
8160;BME280;27404;52.398;9.646;2023-02-17T08:55:05;100651.25;;;9.58;100.00
8160;BME280;27404;52.398;9.646;2023-02-17T08:57:31;100646.00;;;9.56;100.00
8160;BME280;27404;52.398;9.646;2023-02-17T08:59:56;100649.25;;;9.65;100.00
8160;BME280;27404;52.398;9.646;2023-02-17T09:02:21;100652.72;;;9.72;100.00
8160;BME280;27404;52.398;9.646;2023-02-17T09:04:47;100655.09;;;9.69;100.00
8160;BME280;27404;52.398;9.646;2023-02-17T09:07:13;100631.13;;;9.71;100.00
8160;BME280;27404;52.398;9.646;2023-02-17T09:09:40;100641.13;;;9.77;100.00
8160;BME280;27404;52.398;9.646;2023-02-17T09:12:06;100650.16;;;9.77;100.00
8160;BME280;27404;52.398;9.646;2023-02-17T09:14:32;100649.94;;;9.79;100.00
8160;BME280;27404;52.398;9.646;2023-02-17T09:16:57;100647.41;;;9.77;100.00
8160;BME280;27404;52.398;9.646;2023-02-17T09:19:23;100650.53;;;9.81;100.00
8160;BME280;27404;52.398;9.646;2023-02-17T09:21:49;100641.50;;;9.81;100.00
8160;BME280;27404;52.398;9.646;2023-02-17T09:24:15;100656.59;;;9.83;100.00
8160;BME280;27404;52.398;9.646;2023-02-17T09:26:41;100659.22;;;9.90;100.00
8160;BME280;27404;52.398;9.646;2023-02-17T09:29:06;100644.97;;;9.88;100.00
8160;BME280;27404;52.398;9.646;2023-02-17T09:31:33;100656.75;;;9.88;100.00
8160;BME280;27404;52.398;9.646;2023-02-17T09:33:59;100640.38;;;9.88;100.00
8160;BME280;27404;52.398;9.646;2023-02-17T09:36:27;100651.13;;;9.83;100.00
8160;BME280;27404;52.398;9.646;2023-02-17T09:38:54;100650.06;;;9.84;100.00
8160;BME280;27404;52.398;9.646;2023-02-17T09:44:00;100651.88;;;9.90;100.00
8160;BME280;27404;52.398;9.646;2023-02-17T09:46:29;100635.63;;;9.96;100.00
8160;BME280;27404;52.398;9.646;2023-02-17T09:49:01;100642.25;;;9.88;100.00
8160;BME280;27404;52.398;9.646;2023-02-17T09:52:04;100645.38;;;9.91;100.00
8160;BME280;27404;52.398;9.646;2023-02-17T09:57:11;100643.56;;;9.85;100.00
8160;BME280;27404;52.398;9.646;2023-02-17T09:59:46;100637.25;;;9.85;100.00
8160;BME280;27404;52.398;9.646;2023-02-17T10:05:06;100621.00;;;9.90;100.00
8160;BME280;27404;52.398;9.646;2023-02-17T10:07:39;100621.84;;;9.90;100.00
8160;BME280;27404;52.398;9.646;2023-02-17T10:10:39;100602.13;;;9.88;100.00
8160;BME280;27404;52.398;9.646;2023-02-17T10:13:08;100600.38;;;9.94;100.00
8160;BME280;27404;52.398;9.646;2023-02-17T10:15:38;100626.00;;;9.93;100.00
8160;BME280;27404;52.398;9.646;2023-02-17T10:18:13;100616.75;;;9.94;100.00
8160;BME280;27404;52.398;9.646;2023-02-17T10:20:59;100617.94;;;9.98;100.00
8160;BME280;27404;52.398;9.646;2023-02-17T10:23:28;100606.63;;;9.95;100.00
8160;BME280;27404;52.398;9.646;2023-02-17T10:28:53;100631.09;;;9.89;100.00
8160;BME280;27404;52.398;9.646;2023-02-17T10:31:45;100621.25;;;9.88;100.00
8160;BME280;27404;52.398;9.646;2023-02-17T10:34:36;100630.25;;;9.89;100.00
8160;BME280;27404;52.398;9.646;2023-02-17T10:37:11;100631.47;;;9.93;100.00
8160;BME280;27404;52.398;9.646;2023-02-17T10:39:52;100621.97;;;9.96;100.00
8160;BME280;27404;52.398;9.646;2023-02-17T10:42:33;100603.22;;;9.99;100.00
8160;BME280;27404;52.398;9.646;2023-02-17T10:45:06;100609.19;;;10.08;100.00
8160;BME280;27404;52.398;9.646;2023-02-17T10:47:36;100603.66;;;10.27;100.00
8160;BME280;27404;52.398;9.646;2023-02-17T10:50:07;100591.41;;;10.29;100.00
8160;BME280;27404;52.398;9.646;2023-02-17T10:52:40;100590.81;;;10.27;100.00
8160;BME280;27404;52.398;9.646;2023-02-17T10:55:12;100591.19;;;10.31;100.00
8160;BME280;27404;52.398;9.646;2023-02-17T10:57:43;100586.84;;;10.42;100.00
8160;BME280;27404;52.398;9.646;2023-02-17T11:00:15;100591.00;;;10.56;100.00
8160;BME280;27404;52.398;9.646;2023-02-17T11:02:45;100574.97;;;10.60;100.00
8160;BME280;27404;52.398;9.646;2023-02-17T11:05:31;100583.53;;;10.51;100.00
8160;BME280;27404;52.398;9.646;2023-02-17T11:12:54;100569.84;;;10.75;100.00
8160;BME280;27404;52.398;9.646;2023-02-17T11:15:33;100576.28;;;10.81;100.00
8160;BME280;27404;52.398;9.646;2023-02-17T11:18:08;100560.44;;;10.95;100.00
8160;BME280;27404;52.398;9.646;2023-02-17T11:20:35;100551.38;;;11.06;100.00
8160;BME280;27404;52.398;9.646;2023-02-17T11:25:33;100540.84;;;11.27;100.00
8160;BME280;27404;52.398;9.646;2023-02-17T11:28:05;100534.00;;;11.53;100.00
8160;BME280;27404;52.398;9.646;2023-02-17T11:30:33;100539.00;;;11.74;100.00
8160;BME280;27404;52.398;9.646;2023-02-17T11:33:10;100544.19;;;11.58;100.00
8160;BME280;27404;52.398;9.646;2023-02-17T11:38:12;100524.38;;;11.68;100.00
8160;BME280;27404;52.398;9.646;2023-02-17T11:40:39;100524.25;;;11.75;100.00
8160;BME280;27404;52.398;9.646;2023-02-17T11:43:05;100507.16;;;11.84;100.00
8160;BME280;27404;52.398;9.646;2023-02-17T11:45:40;100515.72;;;11.88;100.00
8160;BME280;27404;52.398;9.646;2023-02-17T12:00:16;100503.44;;;11.62;100.00
8160;BME280;27404;52.398;9.646;2023-02-17T12:08:37;100511.13;;;11.77;100.00
8160;BME280;27404;52.398;9.646;2023-02-17T12:11:16;100529.06;;;11.84;100.00
8160;BME280;27404;52.398;9.646;2023-02-17T12:22:19;100528.38;;;11.77;100.00
8160;BME280;27404;52.398;9.646;2023-02-17T12:25:02;100521.84;;;11.78;100.00
8160;BME280;27404;52.398;9.646;2023-02-17T12:35:24;100549.72;;;11.46;100.00
8160;BME280;27404;52.398;9.646;2023-02-17T12:37:58;100551.78;;;11.39;100.00
8160;BME280;27404;52.398;9.646;2023-02-17T12:40:35;100550.25;;;11.31;100.00
8160;BME280;27404;52.398;9.646;2023-02-17T12:43:26;100553.81;;;11.32;100.00
8160;BME280;27404;52.398;9.646;2023-02-17T12:45:56;100545.50;;;11.26;100.00
8160;BME280;27404;52.398;9.646;2023-02-17T12:51:06;100553.59;;;11.21;100.00
8160;BME280;27404;52.398;9.646;2023-02-17T12:53:57;100539.94;;;11.21;100.00
8160;BME280;27404;52.398;9.646;2023-02-17T12:58:50;100527.09;;;11.22;100.00
8160;BME280;27404;52.398;9.646;2023-02-17T13:01:18;100545.66;;;11.20;100.00
8160;BME280;27404;52.398;9.646;2023-02-17T13:03:46;100540.06;;;11.15;100.00
8160;BME280;27404;52.398;9.646;2023-02-17T13:06:36;100532.84;;;11.08;100.00
8160;BME280;27404;52.398;9.646;2023-02-17T13:09:28;100532.25;;;11.06;100.00
8160;BME280;27404;52.398;9.646;2023-02-17T13:14:51;100538.63;;;11.12;100.00
8160;BME280;27404;52.398;9.646;2023-02-17T13:17:27;100552.19;;;11.07;100.00
8160;BME280;27404;52.398;9.646;2023-02-17T13:20:23;100569.09;;;11.04;100.00
8160;BME280;27404;52.398;9.646;2023-02-17T13:22:50;100567.81;;;11.06;100.00
8160;BME280;27404;52.398;9.646;2023-02-17T13:25:29;100571.63;;;11.05;100.00
8160;BME280;27404;52.398;9.646;2023-02-17T13:27:58;100592.91;;;10.91;100.00
8160;BME280;27404;52.398;9.646;2023-02-17T13:33:04;100603.94;;;10.61;100.00
8160;BME280;27404;52.398;9.646;2023-02-17T13:35:35;100600.41;;;10.60;100.00
8160;BME280;27404;52.398;9.646;2023-02-17T13:38:01;100613.81;;;10.50;100.00
8160;BME280;27404;52.398;9.646;2023-02-17T13:42:55;100615.59;;;10.44;100.00
8160;BME280;27404;52.398;9.646;2023-02-17T13:45:30;100618.66;;;10.36;100.00
8160;BME280;27404;52.398;9.646;2023-02-17T13:48:11;100617.44;;;10.32;100.00
8160;BME280;27404;52.398;9.646;2023-02-17T13:50:45;100624.56;;;10.33;100.00
8160;BME280;27404;52.398;9.646;2023-02-17T13:55:56;100616.25;;;10.28;100.00
8160;BME280;27404;52.398;9.646;2023-02-17T13:58:24;100613.75;;;10.26;100.00
8160;BME280;27404;52.398;9.646;2023-02-17T14:00:51;100614.78;;;10.13;100.00
8160;BME280;27404;52.398;9.646;2023-02-17T14:03:23;100610.97;;;10.02;100.00
8160;BME280;27404;52.398;9.646;2023-02-17T14:05:52;100609.03;;;10.03;100.00
8160;BME280;27404;52.398;9.646;2023-02-17T14:08:41;100610.22;;;9.95;100.00
8160;BME280;27404;52.398;9.646;2023-02-17T14:11:09;100602.03;;;9.95;100.00
8160;BME280;27404;52.398;9.646;2023-02-17T14:13:36;100614.47;;;9.91;100.00
8160;BME280;27404;52.398;9.646;2023-02-17T14:16:03;100621.25;;;9.88;100.00
8160;BME280;27404;52.398;9.646;2023-02-17T14:18:35;100632.38;;;9.87;100.00
8160;BME280;27404;52.398;9.646;2023-02-17T14:21:03;100637.50;;;9.83;100.00
8160;BME280;27404;52.398;9.646;2023-02-17T14:23:39;100628.56;;;9.76;100.00
8160;BME280;27404;52.398;9.646;2023-02-17T14:28:58;100619.00;;;9.67;100.00
8160;BME280;27404;52.398;9.646;2023-02-17T14:31:24;100617.81;;;9.62;100.00
8160;BME280;27404;52.398;9.646;2023-02-17T14:33:58;100623.63;;;9.66;100.00
8160;BME280;27404;52.398;9.646;2023-02-17T14:36:32;100625.06;;;9.69;100.00
8160;BME280;27404;52.398;9.646;2023-02-17T14:38:58;100624.69;;;9.65;100.00
8160;BME280;27404;52.398;9.646;2023-02-17T14:41:25;100618.25;;;9.59;100.00
8160;BME280;27404;52.398;9.646;2023-02-17T14:43:51;100628.72;;;9.62;100.00
8160;BME280;27404;52.398;9.646;2023-02-17T14:46:16;100635.59;;;9.65;100.00
8160;BME280;27404;52.398;9.646;2023-02-17T14:48:45;100632.88;;;9.65;100.00